createdAt,value
2018-10-16T00:01:28.594Z,12.10
2018-10-16T00:03:59.166Z,13.07
2018-10-16T00:06:30.467Z,12.93
2018-10-16T00:09:01.191Z,13.03
2018-10-16T00:11:37.278Z,12.30
2018-10-16T00:14:07.820Z,12.07
2018-10-16T00:16:37.937Z,12.40
2018-10-16T00:19:07.754Z,13.30
2018-10-16T00:21:38.144Z,12.57
2018-10-16T00:24:08.390Z,12.70
2018-10-16T00:26:38.722Z,13.07
2018-10-16T00:29:09.197Z,11.93
2018-10-16T00:31:39.824Z,13.03
2018-10-16T00:34:10.076Z,13.33
2018-10-16T00:36:40.448Z,13.60
2018-10-16T00:39:17.989Z,13.60
2018-10-16T00:41:56.079Z,13.53
2018-10-16T00:44:26.542Z,12.37
2018-10-16T00:46:56.789Z,13.00
2018-10-16T00:49:27.032Z,13.67
2018-10-16T00:51:57.052Z,13.43
2018-10-16T00:54:27.851Z,12.97
2018-10-16T00:56:58.378Z,13.77
2018-10-16T00:59:28.853Z,12.90
2018-10-16T01:01:59.075Z,12.97
2018-10-16T01:04:29.595Z,13.43
2018-10-16T01:07:00.067Z,14.07
2018-10-16T01:09:30.537Z,12.90
2018-10-16T01:12:00.598Z,13.13
2018-10-16T01:14:31.101Z,13.63
2018-10-16T01:17:01.439Z,13.70
2018-10-16T01:19:32.309Z,13.73
2018-10-16T01:22:02.888Z,13.13
2018-10-16T01:24:33.330Z,13.70
2018-10-16T01:27:03.931Z,13.50
2018-10-16T01:29:34.669Z,12.77
2018-10-16T01:32:05.326Z,14.20
2018-10-16T01:34:36.423Z,14.43
2018-10-16T01:37:06.921Z,14.53
2018-10-16T01:39:38.065Z,13.33
2018-10-16T01:42:08.419Z,14.57
2018-10-16T01:44:39.507Z,14.20
2018-10-16T01:47:10.581Z,13.50
2018-10-16T01:49:40.788Z,12.60
2018-10-16T01:52:11.118Z,14.37
2018-10-16T01:54:41.911Z,16.20
2018-10-16T01:57:12.239Z,13.97
2018-10-16T01:59:42.450Z,13.37
2018-10-16T02:02:13.328Z,14.77
2018-10-16T02:04:43.738Z,13.53
2018-10-16T02:07:14.394Z,13.53
2018-10-16T02:09:44.664Z,13.73
2018-10-16T02:12:15.024Z,13.30
2018-10-16T02:14:45.772Z,13.70
2018-10-16T02:17:16.271Z,12.77
2018-10-16T02:19:46.776Z,13.67
2018-10-16T02:22:20.391Z,12.97
2018-10-16T02:24:50.869Z,13.60
2018-10-16T02:27:21.343Z,14.03
2018-10-16T02:29:51.709Z,14.80
2018-10-16T02:32:22.422Z,15.07
2018-10-16T02:34:52.912Z,14.83
2018-10-16T02:37:23.338Z,13.30
2018-10-16T02:39:53.866Z,14.00
2018-10-16T02:42:26.476Z,14.50
2018-10-16T02:44:56.938Z,13.80
2018-10-16T02:47:27.242Z,13.03
2018-10-16T02:49:57.421Z,14.83
2018-10-16T02:52:27.706Z,13.70
2018-10-16T02:54:58.006Z,14.27
2018-10-16T02:57:28.395Z,13.57
2018-10-16T03:00:02.031Z,13.67
2018-10-16T03:02:32.260Z,12.80
2018-10-16T03:05:03.072Z,13.77
2018-10-16T03:07:33.545Z,12.60
2018-10-16T03:10:04.036Z,12.90
2018-10-16T03:12:34.795Z,12.73
2018-10-16T03:15:07.035Z,12.37
2018-10-16T03:17:37.614Z,12.80
2018-10-16T03:20:08.943Z,11.87
2018-10-16T03:22:41.001Z,12.37
2018-10-16T03:25:13.051Z,12.97
2018-10-16T03:27:43.759Z,12.80
2018-10-16T03:30:14.310Z,11.83
2018-10-16T03:32:44.793Z,12.43
2018-10-16T03:35:15.643Z,13.03
2018-10-16T03:37:46.847Z,12.60
2018-10-16T03:40:17.322Z,12.60
2018-10-16T03:42:48.284Z,12.27
2018-10-16T03:45:19.197Z,11.63
2018-10-16T03:47:50.608Z,12.40
2018-10-16T03:50:20.961Z,11.90
2018-10-16T03:52:51.703Z,13.27
2018-10-16T03:55:22.048Z,13.47
2018-10-16T03:57:53.946Z,13.67
2018-10-16T04:00:24.313Z,13.53
2018-10-16T04:02:54.965Z,12.67
2018-10-16T04:05:25.717Z,13.67
2018-10-16T04:07:56.006Z,13.40
2018-10-16T04:10:26.650Z,13.47
2018-10-16T04:12:57.004Z,13.40
2018-10-16T04:15:27.492Z,12.73
2018-10-16T04:17:57.760Z,13.10
2018-10-16T04:20:28.262Z,13.30
2018-10-16T04:22:58.716Z,13.20
2018-10-16T04:25:29.133Z,13.07
2018-10-16T04:27:59.960Z,13.13
2018-10-16T04:30:30.483Z,13.27
2018-10-16T04:33:01.062Z,13.13
2018-10-16T04:35:31.789Z,13.30
2018-10-16T04:38:02.382Z,14.67
2018-10-16T04:40:33.720Z,13.80
2018-10-16T04:43:04.039Z,14.30
2018-10-16T04:45:34.597Z,14.27
2018-10-16T04:48:05.433Z,13.20
2018-10-16T04:50:36.143Z,14.30
2018-10-16T04:53:06.829Z,14.00
2018-10-16T04:55:37.131Z,15.13
2018-10-16T04:58:07.982Z,15.20
2018-10-16T05:00:38.457Z,14.57
2018-10-16T05:03:08.856Z,13.77
2018-10-16T05:05:48.999Z,14.47
2018-10-16T05:08:19.313Z,14.73
2018-10-16T05:10:50.222Z,14.27
2018-10-16T05:13:20.677Z,14.30
2018-10-16T05:15:51.199Z,14.97
2018-10-16T05:18:21.703Z,15.60
2018-10-16T05:20:52.238Z,16.20
2018-10-16T05:23:22.743Z,16.30
2018-10-16T05:25:53.435Z,16.37
2018-10-16T05:28:24.240Z,16.83
2018-10-16T05:30:54.514Z,17.80
2018-10-16T05:33:24.942Z,16.50
2018-10-16T05:36:01.075Z,17.77
2018-10-16T05:38:31.536Z,17.87
2018-10-16T05:41:01.997Z,17.73
2018-10-16T05:43:32.524Z,17.07
2018-10-16T05:46:02.989Z,17.73
2018-10-16T05:48:33.162Z,17.40
2018-10-16T05:51:03.307Z,17.03
2018-10-16T05:53:33.318Z,15.60
2018-10-16T05:56:06.038Z,16.70
2018-10-16T05:58:36.742Z,16.97
2018-10-16T06:01:06.910Z,15.63
2018-10-16T06:03:37.709Z,16.30
2018-10-16T06:06:08.417Z,15.57
2018-10-16T06:08:39.143Z,16.20
2018-10-16T06:11:09.769Z,16.50
2018-10-16T06:13:40.224Z,15.60
2018-10-16T06:16:11.492Z,17.57
2018-10-16T06:18:42.219Z,16.90
2018-10-16T06:21:12.542Z,17.03
2018-10-16T06:23:43.029Z,15.60
2018-10-16T06:26:13.903Z,16.57
2018-10-16T06:28:44.414Z,16.43
2018-10-16T06:31:14.904Z,17.83
2018-10-16T06:33:45.693Z,17.40
2018-10-16T06:36:16.456Z,17.37
2018-10-16T06:38:47.286Z,16.17
2018-10-16T06:41:18.193Z,17.17
2018-10-16T06:43:49.007Z,16.13
2018-10-16T06:46:19.932Z,15.33
2018-10-16T06:48:50.749Z,16.43
2018-10-16T06:51:21.528Z,16.93
2018-10-16T06:53:52.366Z,16.30
2018-10-16T06:56:22.845Z,17.27
2018-10-16T06:58:54.066Z,18.00
2018-10-16T07:01:24.659Z,17.20
2018-10-16T07:03:55.307Z,16.93
2018-10-16T07:06:26.122Z,17.90
2018-10-16T07:08:57.289Z,16.50
2018-10-16T07:11:27.816Z,15.90
2018-10-16T07:13:58.688Z,15.77
2018-10-16T07:16:29.524Z,16.40
2018-10-16T07:19:00.120Z,16.93
2018-10-16T07:21:30.958Z,16.00
2018-10-16T07:24:01.677Z,16.30
2018-10-16T07:26:32.326Z,15.37
2018-10-16T07:29:02.896Z,15.13
2018-10-16T07:31:33.938Z,15.90
2018-10-16T07:34:04.474Z,14.30
2018-10-16T07:36:35.121Z,14.93
2018-10-16T07:39:08.525Z,14.87
2018-10-16T07:41:39.844Z,14.33
2018-10-16T07:44:11.607Z,14.23
2018-10-16T07:46:42.365Z,14.37
2018-10-16T07:49:13.010Z,12.67
2018-10-16T07:51:43.612Z,12.63
2018-10-16T07:54:14.384Z,13.40
2018-10-16T07:56:45.558Z,13.10
2018-10-16T07:59:16.400Z,12.27
2018-10-16T08:01:47.118Z,12.03
2018-10-16T08:04:17.438Z,10.63
2018-10-16T08:06:48.228Z,10.90
2018-10-16T08:09:18.736Z,11.37
2018-10-16T08:11:50.122Z,10.73
2018-10-16T08:14:21.384Z,10.87
2018-10-16T08:16:51.874Z,10.70
2018-10-16T08:19:22.381Z,10.53
2018-10-16T08:21:53.504Z,10.80
2018-10-16T08:24:24.163Z,10.63
2018-10-16T08:26:54.890Z,10.63
2018-10-16T08:29:25.721Z,10.73
2018-10-16T08:31:56.282Z,10.13
2018-10-16T08:34:27.166Z,10.23
2018-10-16T08:36:57.621Z,11.17
2018-10-16T08:39:30.423Z,10.30
2018-10-16T08:42:28.175Z,10.10
2018-10-16T08:45:20.747Z,10.33
2018-10-16T08:48:01.630Z,10.33
2018-10-16T08:50:44.141Z,10.00
2018-10-16T08:53:15.409Z,10.10
2018-10-16T08:55:46.001Z,10.03
2018-10-16T08:58:17.390Z,9.60
2018-10-16T09:00:48.010Z,9.13
2018-10-16T09:03:24.731Z,9.90
2018-10-16T09:05:55.371Z,9.13
2018-10-16T09:08:25.738Z,8.97
2018-10-16T09:10:56.555Z,9.00
2018-10-16T09:13:27.251Z,8.97
2018-10-16T09:15:57.528Z,9.03
2018-10-16T09:18:27.505Z,8.43
2018-10-16T09:20:58.283Z,7.83
2018-10-16T09:23:28.871Z,8.40
2018-10-16T09:25:59.319Z,8.87
2018-10-16T09:28:29.659Z,8.83
2018-10-16T09:31:00.218Z,9.20
2018-10-16T09:33:30.324Z,9.30
2018-10-16T09:36:01.115Z,9.00
2018-10-16T09:38:31.742Z,8.73
2018-10-16T09:41:02.399Z,8.77
2018-10-16T09:43:33.023Z,8.67
2018-10-16T09:46:03.605Z,8.77
2018-10-16T09:48:33.898Z,8.53
2018-10-16T09:51:04.595Z,8.60
2018-10-16T09:53:35.142Z,8.87
2018-10-16T09:56:06.281Z,9.23
2018-10-16T09:58:37.774Z,9.07
2018-10-16T10:01:13.990Z,10.53
2018-10-16T10:03:44.608Z,8.87
2018-10-16T10:06:14.926Z,9.00
2018-10-16T10:08:45.318Z,9.77
2018-10-16T10:11:15.662Z,9.23
2018-10-16T10:13:46.180Z,8.53
2018-10-16T10:16:16.326Z,9.53
2018-10-16T10:18:46.872Z,9.07
2018-10-16T10:21:17.266Z,8.60
2018-10-16T10:23:47.795Z,8.43
2018-10-16T10:26:18.151Z,8.43
2018-10-16T10:28:48.858Z,8.40
2018-10-16T10:31:19.376Z,8.27
2018-10-16T10:33:53.559Z,8.40
2018-10-16T10:36:24.668Z,8.88
2018-10-16T10:38:56.422Z,7.92
2018-10-16T10:41:33.724Z,7.40
2018-10-16T10:44:04.106Z,7.75
2018-10-16T10:46:34.598Z,7.80
2018-10-16T10:49:05.486Z,7.87
2018-10-16T10:51:36.506Z,7.53
2018-10-16T10:54:07.794Z,7.17
2018-10-16T10:56:38.347Z,7.45
2018-10-16T10:59:09.252Z,7.20
2018-10-16T11:01:40.237Z,7.87
2018-10-16T11:04:11.884Z,7.85
2018-10-16T11:06:43.185Z,8.10
2018-10-16T11:09:14.652Z,7.50
2018-10-16T11:11:49.598Z,8.30
2018-10-16T11:14:20.432Z,8.60
2018-10-16T11:16:51.894Z,7.47
2018-10-16T11:19:23.878Z,8.53
2018-10-16T11:21:54.246Z,7.87
2018-10-16T11:24:24.810Z,8.10
2018-10-16T11:26:55.560Z,7.90
2018-10-16T11:29:26.246Z,8.33
2018-10-16T11:31:57.216Z,7.57
2018-10-16T11:34:27.953Z,7.50
2018-10-16T11:36:58.945Z,7.67
2018-10-16T11:39:30.130Z,7.73
2018-10-16T11:42:01.444Z,7.40
2018-10-16T11:44:33.165Z,6.92
2018-10-16T11:47:03.968Z,7.28
2018-10-16T11:49:34.936Z,7.40
2018-10-16T11:52:06.420Z,7.60
2018-10-16T11:54:37.812Z,7.70
2018-10-16T11:57:08.976Z,7.53
2018-10-16T11:59:40.435Z,8.03
2018-10-16T12:02:10.856Z,7.65
2018-10-16T12:04:42.900Z,7.62
2018-10-16T12:07:13.420Z,7.58
2018-10-16T12:09:45.066Z,7.28
2018-10-16T12:12:15.897Z,7.30
2018-10-16T12:14:46.885Z,7.60
2018-10-16T12:17:58.971Z,7.60
2018-10-16T12:21:05.509Z,7.67
2018-10-16T12:23:43.428Z,7.30
2018-10-16T12:26:14.232Z,7.08
2018-10-16T12:28:46.093Z,7.45
2018-10-16T12:31:17.818Z,7.10
2018-10-16T12:33:48.800Z,7.15
2018-10-16T12:36:19.556Z,7.45
2018-10-16T12:38:49.809Z,6.60
2018-10-16T12:41:19.742Z,6.83
2018-10-16T12:43:50.607Z,7.28
2018-10-16T12:46:20.985Z,7.12
2018-10-16T12:48:51.098Z,6.55
2018-10-16T12:51:21.381Z,7.50
2018-10-16T12:53:51.746Z,7.47
2018-10-16T12:56:22.299Z,7.47
2018-10-16T12:58:52.563Z,7.12
2018-10-16T13:01:22.820Z,7.60
2018-10-16T13:03:53.197Z,6.80
2018-10-16T13:06:23.575Z,7.20
2018-10-16T13:08:54.085Z,6.85
2018-10-16T13:11:24.159Z,6.85
2018-10-16T13:13:54.585Z,6.50
2018-10-16T13:16:25.405Z,6.85
2018-10-16T13:18:56.103Z,7.10
2018-10-16T13:21:26.585Z,7.08
2018-10-16T13:23:56.882Z,7.97
2018-10-16T13:26:27.151Z,7.25
2018-10-16T13:28:57.738Z,7.12
2018-10-16T13:31:27.826Z,7.50
2018-10-16T13:33:58.145Z,7.00
2018-10-16T13:36:28.024Z,7.25
2018-10-16T13:38:59.157Z,7.22
2018-10-16T13:41:29.041Z,7.67
2018-10-16T13:43:59.112Z,7.30
2018-10-16T13:46:29.407Z,7.50
2018-10-16T13:48:59.741Z,7.60
2018-10-16T13:51:29.935Z,7.30
2018-10-16T13:54:00.734Z,6.72
2018-10-16T13:56:30.995Z,7.55
2018-10-16T13:59:01.422Z,8.10
2018-10-16T14:01:31.647Z,6.90
2018-10-16T14:04:01.546Z,6.58
2018-10-16T14:06:32.037Z,6.67
2018-10-16T14:09:02.756Z,6.67
2018-10-16T14:11:32.985Z,7.40
2018-10-16T14:14:03.368Z,7.08
2018-10-16T14:16:33.484Z,6.85
2018-10-16T14:19:03.746Z,7.25
2018-10-16T14:21:34.644Z,7.05
2018-10-16T14:24:05.024Z,6.92
2018-10-16T14:26:40.235Z,8.05
2018-10-16T14:29:11.457Z,7.55
2018-10-16T14:31:42.241Z,7.72
2018-10-16T14:34:12.964Z,7.87
2018-10-16T14:36:43.140Z,8.35
2018-10-16T14:39:14.328Z,9.00
2018-10-16T14:41:45.646Z,9.30
2018-10-16T14:44:15.956Z,8.43
2018-10-16T14:46:47.596Z,7.92
2018-10-16T14:49:18.304Z,8.55
2018-10-16T14:51:49.275Z,8.60
2018-10-16T14:54:19.666Z,8.48
2018-10-16T14:56:49.727Z,8.83
2018-10-16T14:59:19.911Z,9.03
2018-10-16T15:01:51.242Z,8.68
2018-10-16T15:04:21.728Z,8.05
2018-10-16T15:06:52.073Z,8.00
2018-10-16T15:09:22.269Z,8.10
2018-10-16T15:11:52.890Z,8.15
2018-10-16T15:14:23.128Z,8.03
2018-10-16T15:16:53.789Z,8.10
2018-10-16T15:19:23.990Z,8.50
2018-10-16T15:21:54.478Z,7.85
2018-10-16T15:24:24.832Z,7.50
2018-10-16T15:26:55.686Z,7.33
2018-10-16T15:29:26.022Z,7.70
2018-10-16T15:31:58.278Z,7.20
2018-10-16T15:34:28.630Z,7.20
2018-10-16T15:36:59.276Z,7.87
2018-10-16T15:39:29.499Z,8.07
2018-10-16T15:42:00.025Z,7.67
2018-10-16T15:44:30.147Z,7.97
2018-10-16T15:47:00.496Z,7.83
2018-10-16T15:49:30.955Z,9.07
2018-10-16T15:52:01.596Z,7.70
2018-10-16T15:54:31.627Z,7.27
2018-10-16T15:57:01.699Z,7.63
2018-10-16T15:59:32.177Z,7.57
2018-10-16T16:02:02.599Z,7.83
2018-10-16T16:04:32.973Z,8.17
2018-10-16T16:07:04.389Z,7.70
2018-10-16T16:09:35.295Z,7.17
2018-10-16T16:12:05.931Z,7.07
2018-10-16T16:14:36.472Z,7.97
2018-10-16T16:17:06.689Z,7.53
2018-10-16T16:19:37.748Z,8.10
2018-10-16T16:22:08.169Z,7.83
2018-10-16T16:24:38.849Z,9.47
2018-10-16T16:27:09.406Z,8.60
2018-10-16T16:29:40.314Z,8.10
2018-10-16T16:32:11.041Z,7.63
2018-10-16T16:34:41.586Z,8.23
2018-10-16T16:37:12.000Z,7.73
2018-10-16T16:39:42.564Z,7.73
2018-10-16T16:42:13.052Z,7.77
2018-10-16T16:44:43.380Z,7.87
2018-10-16T16:47:14.336Z,7.87
2018-10-16T16:49:45.135Z,8.07
2018-10-16T16:52:15.904Z,8.47
2018-10-16T16:54:46.702Z,7.70
2018-10-16T16:57:17.049Z,8.10
2018-10-16T16:59:47.702Z,8.23
2018-10-16T17:02:18.405Z,9.00
2018-10-16T17:04:48.974Z,8.43
2018-10-16T17:07:19.846Z,8.33
2018-10-16T17:09:50.448Z,8.53
2018-10-16T17:12:21.131Z,7.70
2018-10-16T17:14:51.575Z,8.27
2018-10-16T17:17:22.300Z,8.07
2018-10-16T17:19:53.270Z,8.37
2018-10-16T17:22:23.840Z,8.70
2018-10-16T17:24:56.094Z,9.50
2018-10-16T17:27:26.571Z,9.93
2018-10-16T17:29:57.833Z,9.70
2018-10-16T17:32:29.204Z,9.53
2018-10-16T17:35:00.348Z,8.87
2018-10-16T17:37:30.866Z,9.33
2018-10-16T17:40:02.241Z,8.80
2018-10-16T17:42:32.754Z,9.97
2018-10-16T17:45:03.571Z,10.07
2018-10-16T17:47:34.308Z,10.30
2018-10-16T17:50:06.254Z,10.47
2018-10-16T17:52:38.381Z,10.90
2018-10-16T17:55:11.192Z,10.43
2018-10-16T17:57:41.815Z,11.00
2018-10-16T18:00:16.929Z,11.00
2018-10-16T18:02:47.919Z,10.70
2018-10-16T18:05:18.968Z,10.87
2018-10-16T18:07:50.017Z,11.07
2018-10-16T18:10:20.772Z,11.30
2018-10-16T18:12:51.400Z,10.97
2018-10-16T18:15:22.443Z,11.00
2018-10-16T18:17:54.797Z,11.00
2018-10-16T18:20:25.624Z,11.10
2018-10-16T18:22:56.371Z,11.23
2018-10-16T18:25:27.430Z,11.13
2018-10-16T18:27:58.607Z,11.50
2018-10-16T18:30:29.181Z,11.83
2018-10-16T18:32:59.928Z,10.90
2018-10-16T18:35:31.092Z,11.37
2018-10-16T18:38:01.950Z,12.03
2018-10-16T18:40:32.474Z,12.73
2018-10-16T18:43:03.609Z,11.03
2018-10-16T18:45:34.114Z,11.90
2018-10-16T18:48:05.907Z,12.53
2018-10-16T18:50:36.655Z,13.20
2018-10-16T18:53:08.416Z,12.97
2018-10-16T18:55:39.015Z,12.33
2018-10-16T18:58:10.049Z,12.40
2018-10-16T19:00:41.157Z,12.87
2018-10-16T19:03:11.894Z,13.07
2018-10-16T19:05:42.259Z,12.47
2018-10-16T19:08:14.091Z,12.43
2018-10-16T19:10:45.306Z,12.77
2018-10-16T19:13:16.191Z,12.33
2018-10-16T19:15:46.869Z,12.90
2018-10-16T19:18:17.741Z,13.00
2018-10-16T19:20:48.484Z,12.03
2018-10-16T19:23:19.360Z,12.20
2018-10-16T19:25:50.416Z,13.13
2018-10-16T19:28:21.262Z,12.77
2018-10-16T19:30:51.928Z,12.83
2018-10-16T19:33:22.632Z,13.30
2018-10-16T19:35:52.969Z,13.30
2018-10-16T19:38:24.888Z,12.87
2018-10-16T19:40:55.310Z,12.90
2018-10-16T19:43:26.435Z,13.03
2018-10-16T19:45:56.853Z,12.80
2018-10-16T19:48:30.583Z,12.43
2018-10-16T19:51:01.679Z,12.60
2018-10-16T19:53:32.858Z,12.73
2018-10-16T19:56:04.598Z,12.30
2018-10-16T19:58:35.472Z,12.43
2018-10-16T20:01:06.031Z,15.10
2018-10-16T20:03:36.598Z,12.20
2018-10-16T20:06:07.965Z,13.17
2018-10-16T20:08:38.457Z,12.67
2018-10-16T20:11:08.860Z,13.10
2018-10-16T20:13:39.612Z,13.53
2018-10-16T20:16:10.624Z,14.37
2018-10-16T20:18:41.230Z,13.97
2018-10-16T20:21:12.228Z,13.20
2018-10-16T20:23:42.796Z,13.77
2018-10-16T20:26:13.288Z,13.93
2018-10-16T20:28:43.914Z,13.77
2018-10-16T20:31:14.669Z,13.50
2018-10-16T20:33:45.714Z,13.70
2018-10-16T20:36:17.150Z,13.53
2018-10-16T20:38:47.643Z,14.03
2018-10-16T20:41:18.941Z,13.83
2018-10-16T20:43:49.414Z,13.97
2018-10-16T20:46:20.495Z,13.77
2018-10-16T20:48:50.933Z,14.27
2018-10-16T20:51:20.985Z,13.80
2018-10-16T20:53:50.895Z,15.23
2018-10-16T20:56:21.632Z,15.17
2018-10-16T20:58:52.379Z,13.07
2018-10-16T21:01:22.811Z,13.67
2018-10-16T21:03:52.983Z,14.70
2018-10-16T21:06:23.434Z,13.67
2018-10-16T21:08:53.451Z,14.77
2018-10-16T21:11:23.600Z,14.43
2018-10-16T21:13:54.100Z,14.07
2018-10-16T21:30:04.148Z,14.57
2018-10-16T21:32:34.854Z,15.03
2018-10-16T21:35:05.679Z,14.80
2018-10-16T21:37:36.227Z,14.67
2018-10-16T21:40:08.248Z,14.87
2018-10-16T21:42:38.512Z,14.90
2018-10-16T21:45:09.022Z,14.93
2018-10-16T21:47:39.519Z,14.33
2018-10-16T21:50:09.713Z,15.27
2018-10-16T21:52:40.115Z,14.90
2018-10-16T21:55:10.457Z,14.77
2018-10-16T21:57:40.654Z,14.43
2018-10-16T22:00:16.699Z,15.60
2018-10-16T22:02:50.465Z,15.43
2018-10-16T22:05:23.661Z,14.83
2018-10-16T22:07:56.004Z,15.50
2018-10-16T22:10:27.104Z,15.00
2018-10-16T22:12:56.900Z,15.43
2018-10-16T22:15:27.654Z,15.00
2018-10-16T22:17:57.490Z,15.33
2018-10-16T22:20:28.433Z,14.10
2018-10-16T22:22:59.000Z,15.33
2018-10-16T22:25:29.484Z,15.77
2018-10-16T22:28:00.220Z,15.83
2018-10-16T22:30:30.498Z,14.80
2018-10-16T22:33:00.908Z,14.90
2018-10-16T22:35:31.294Z,14.80
2018-10-16T22:38:01.592Z,14.53
2018-10-16T22:40:31.872Z,14.60
2018-10-16T22:43:02.200Z,14.63
2018-10-16T22:45:32.697Z,14.20
2018-10-16T22:48:09.641Z,15.50
2018-10-16T22:50:39.867Z,14.60
2018-10-16T22:53:10.133Z,15.37
2018-10-16T22:55:40.237Z,15.13
2018-10-16T22:58:10.456Z,13.73
2018-10-16T23:00:40.571Z,14.70
2018-10-16T23:03:11.047Z,15.30
2018-10-16T23:05:41.332Z,14.63
2018-10-16T23:08:11.980Z,15.10
2018-10-16T23:10:42.840Z,14.83
2018-10-16T23:13:13.219Z,15.13
2018-10-16T23:15:43.178Z,15.13
2018-10-16T23:18:13.446Z,14.77
2018-10-16T23:20:43.667Z,15.13
2018-10-16T23:23:14.387Z,15.80
2018-10-16T23:25:44.602Z,13.63
2018-10-16T23:28:14.995Z,14.90
2018-10-16T23:30:45.538Z,14.60
2018-10-16T23:33:17.044Z,14.93
2018-10-16T23:35:47.513Z,14.77
2018-10-16T23:38:18.066Z,15.20
2018-10-16T23:40:48.460Z,15.10
2018-10-16T23:43:18.931Z,14.87
2018-10-16T23:45:49.551Z,14.10
2018-10-16T23:48:19.702Z,13.63
2018-10-16T23:50:50.072Z,14.87
2018-10-16T23:53:20.232Z,13.77
2018-10-16T23:55:50.752Z,14.13
2018-10-16T23:58:26.757Z,13.07
